createdAt,value
2019-04-14T00:01:34.777Z,12.00
2019-04-14T00:04:22.603Z,12.00
2019-04-14T00:06:52.971Z,12.10
2019-04-14T00:09:23.651Z,12.10
2019-04-14T00:11:57.551Z,12.10
2019-04-14T00:14:27.866Z,12.10
2019-04-14T00:16:58.081Z,12.00
2019-04-14T00:19:28.435Z,12.00
2019-04-14T00:22:07.222Z,11.90
2019-04-14T00:24:38.100Z,11.90
2019-04-14T00:27:08.603Z,11.90
2019-04-14T00:29:39.257Z,11.60
2019-04-14T00:32:09.552Z,11.70
2019-04-14T00:34:53.071Z,11.80
2019-04-14T00:37:40.693Z,11.80
2019-04-14T00:40:15.640Z,11.80
2019-04-14T00:42:47.414Z,11.70
2019-04-14T00:45:33.914Z,11.60
2019-04-14T00:48:03.391Z,11.60
2019-04-14T00:50:27.618Z,11.50
2019-04-14T00:52:58.850Z,11.50
2019-04-14T00:55:29.508Z,11.50
2019-04-14T00:57:59.528Z,11.50
2019-04-14T01:00:32.037Z,11.40
2019-04-14T01:03:02.579Z,11.40
2019-04-14T01:05:34.210Z,11.40
2019-04-14T01:08:05.259Z,11.40
2019-04-14T01:10:35.318Z,11.40
2019-04-14T01:13:08.468Z,11.40
2019-04-14T01:15:49.101Z,11.40
2019-04-14T01:18:09.975Z,11.40
2019-04-14T01:20:42.852Z,11.40
2019-04-14T01:23:13.301Z,11.40
2019-04-14T01:25:43.530Z,11.40
2019-04-14T01:28:13.778Z,11.30
2019-04-14T01:30:43.874Z,11.30
2019-04-14T01:33:14.150Z,11.30
2019-04-14T01:35:44.427Z,11.20
2019-04-14T01:38:16.843Z,11.00
2019-04-14T01:40:47.027Z,11.00
2019-04-14T01:43:17.242Z,11.00
2019-04-14T01:45:59.548Z,11.00
2019-04-14T01:48:19.305Z,11.10
2019-04-14T01:50:53.999Z,10.90
2019-04-14T01:53:27.124Z,10.90
2019-04-14T01:56:06.161Z,10.90
2019-04-14T01:58:44.702Z,10.90
2019-04-14T02:01:17.054Z,10.90
2019-04-14T02:03:47.766Z,10.90
2019-04-14T02:06:18.050Z,10.80
2019-04-14T02:08:48.209Z,10.80
2019-04-14T02:11:20.579Z,10.80
2019-04-14T02:13:50.984Z,10.90
2019-04-14T02:16:30.948Z,10.90
2019-04-14T02:18:55.300Z,11.00
2019-04-14T02:21:25.990Z,11.00
2019-04-14T02:23:56.286Z,11.10
2019-04-14T02:26:26.374Z,11.20
2019-04-14T02:28:57.166Z,11.10
2019-04-14T02:31:56.825Z,11.10
2019-04-14T02:37:06.624Z,11.20
2019-04-14T02:39:33.849Z,11.20
2019-04-14T02:44:38.336Z,11.10
2019-04-14T02:47:27.133Z,11.20
2019-04-14T02:52:12.057Z,11.20
2019-04-14T02:57:18.976Z,11.20
2019-04-14T02:59:45.091Z,11.20
2019-04-14T03:04:51.034Z,11.20
2019-04-14T03:09:50.130Z,11.20
2019-04-14T03:12:25.023Z,11.20
2019-04-14T03:14:53.849Z,11.20
2019-04-14T03:20:17.541Z,11.00
2019-04-14T03:22:53.523Z,11.00
2019-04-14T03:25:08.149Z,11.00
2019-04-14T03:27:54.447Z,11.10
2019-04-14T03:30:58.622Z,11.10
2019-04-14T03:38:12.827Z,11.10
2019-04-14T03:40:39.641Z,11.10
2019-04-14T03:43:25.260Z,11.10
2019-04-14T03:50:44.285Z,11.20
2019-04-14T03:53:21.453Z,11.20
2019-04-14T03:55:54.402Z,11.10
2019-04-14T03:58:20.707Z,11.10
2019-04-14T04:00:55.627Z,11.10
2019-04-14T04:03:26.053Z,11.10
2019-04-14T04:05:58.532Z,11.20
2019-04-14T04:08:29.141Z,11.20
2019-04-14T04:11:01.893Z,11.20
2019-04-14T04:13:32.395Z,11.20
2019-04-14T04:16:13.815Z,11.20
2019-04-14T04:18:56.149Z,11.20
2019-04-14T04:21:18.660Z,11.20
2019-04-14T04:23:53.385Z,11.20
2019-04-14T04:26:36.986Z,11.20
2019-04-14T04:29:09.141Z,11.20
2019-04-14T04:31:56.924Z,11.10
2019-04-14T04:34:29.454Z,11.00
2019-04-14T04:37:08.283Z,11.10
2019-04-14T04:39:41.293Z,11.10
2019-04-14T04:42:13.311Z,11.10
2019-04-14T04:44:44.378Z,11.10
2019-04-14T04:47:14.515Z,11.10
2019-04-14T04:49:44.725Z,11.00
2019-04-14T04:52:15.799Z,11.00
2019-04-14T04:54:47.579Z,11.10
2019-04-14T04:57:17.927Z,11.10
2019-04-14T04:59:48.172Z,11.20
2019-04-14T05:02:18.273Z,11.10
2019-04-14T05:04:48.509Z,11.00
2019-04-14T05:07:18.840Z,11.00
2019-04-14T05:09:51.387Z,11.00
2019-04-14T05:12:41.287Z,11.10
2019-04-14T05:15:14.505Z,11.00
2019-04-14T05:17:49.547Z,11.00
2019-04-14T05:20:20.291Z,11.10
2019-04-14T05:22:50.802Z,11.00
2019-04-14T05:25:21.643Z,11.10
2019-04-14T05:27:51.675Z,11.10
2019-04-14T05:30:21.910Z,11.20
2019-04-14T05:32:52.263Z,11.10
2019-04-14T05:35:22.718Z,11.10
2019-04-14T05:37:53.071Z,11.10
2019-04-14T05:40:23.478Z,11.10
2019-04-14T05:42:53.753Z,11.10
2019-04-14T05:45:26.258Z,11.10
2019-04-14T05:47:56.497Z,11.00
2019-04-14T05:50:27.482Z,11.00
2019-04-14T05:52:57.941Z,10.90
2019-04-14T05:55:30.501Z,11.00
2019-04-14T05:58:01.434Z,11.00
2019-04-14T06:00:34.135Z,11.00
2019-04-14T06:03:06.040Z,11.00
2019-04-14T06:05:36.264Z,11.00
2019-04-14T06:08:06.832Z,11.00
2019-04-14T06:10:36.988Z,11.00
2019-04-14T06:13:11.530Z,11.00
2019-04-14T06:15:38.827Z,11.00
2019-04-14T06:18:09.182Z,10.90
2019-04-14T06:20:39.246Z,10.90
2019-04-14T06:23:09.254Z,10.90
2019-04-14T06:25:39.335Z,10.90
2019-04-14T06:28:09.402Z,11.00
2019-04-14T06:30:44.269Z,10.90
2019-04-14T06:33:16.052Z,10.90
2019-04-14T06:35:49.294Z,10.90
2019-04-14T06:38:23.991Z,10.80
2019-04-14T06:40:58.585Z,10.90
2019-04-14T06:43:28.735Z,10.80
2019-04-14T06:45:58.823Z,10.80
2019-04-14T06:48:29.066Z,10.80
2019-04-14T06:50:59.204Z,10.80
2019-04-14T06:53:29.266Z,10.70
2019-04-14T06:55:59.430Z,10.60
2019-04-14T06:58:29.576Z,10.80
2019-04-14T07:01:01.186Z,10.80
2019-04-14T07:03:31.399Z,10.80
2019-04-14T07:06:01.401Z,10.70
2019-04-14T07:08:32.191Z,10.90
2019-04-14T07:11:02.269Z,10.90
2019-04-14T07:13:35.437Z,10.90
2019-04-14T07:16:07.104Z,10.80
2019-04-14T07:18:38.930Z,10.80
2019-04-14T07:21:09.073Z,10.80
2019-04-14T07:23:39.298Z,10.80
2019-04-14T07:26:09.327Z,10.80
2019-04-14T07:28:39.496Z,10.80
2019-04-14T07:31:14.226Z,10.80
2019-04-14T07:34:02.869Z,10.80
2019-04-14T07:36:50.292Z,10.70
2019-04-14T07:39:37.078Z,10.80
2019-04-14T07:42:27.052Z,10.80
2019-04-14T07:45:07.975Z,10.80
2019-04-14T07:47:48.666Z,10.80
2019-04-14T07:50:23.207Z,10.80
2019-04-14T07:53:03.797Z,10.80
2019-04-14T07:55:44.603Z,10.80
2019-04-14T07:58:27.006Z,10.80
2019-04-14T08:01:06.718Z,10.80
2019-04-14T08:03:41.328Z,10.80
2019-04-14T08:06:11.610Z,10.70
2019-04-14T08:08:41.762Z,10.80
2019-04-14T08:11:11.839Z,10.80
2019-04-14T08:13:41.903Z,10.80
2019-04-14T08:16:12.124Z,10.70
2019-04-14T08:18:43.902Z,10.70
2019-04-14T08:21:14.073Z,10.70
2019-04-14T08:23:44.138Z,10.80
2019-04-14T08:26:14.509Z,10.80
2019-04-14T08:28:44.718Z,10.90
2019-04-14T08:31:15.063Z,10.90
2019-04-14T08:33:45.284Z,11.00
2019-04-14T08:36:15.717Z,11.00
2019-04-14T08:38:45.786Z,11.10
2019-04-14T08:41:15.937Z,11.10
2019-04-14T08:43:47.730Z,11.20
2019-04-14T08:46:21.345Z,11.20
2019-04-14T08:48:53.023Z,11.20
2019-04-14T08:51:29.398Z,11.20
2019-04-14T08:54:04.206Z,11.20
2019-04-14T08:56:48.767Z,11.20
2019-04-14T08:59:27.499Z,11.20
2019-04-14T09:02:15.338Z,11.20
2019-04-14T09:04:50.129Z,11.20
2019-04-14T09:07:21.779Z,11.20
2019-04-14T09:10:05.635Z,11.20
2019-04-14T09:12:39.010Z,11.20
2019-04-14T09:15:10.849Z,11.20
2019-04-14T09:17:40.955Z,11.20
2019-04-14T09:20:11.183Z,11.30
2019-04-14T09:22:41.261Z,11.30
2019-04-14T09:25:11.358Z,11.50
2019-04-14T09:27:41.501Z,11.60
2019-04-14T09:30:11.710Z,11.60
2019-04-14T09:32:41.859Z,11.70
2019-04-14T09:35:11.994Z,11.70
2019-04-14T09:37:42.167Z,11.70
2019-04-14T09:40:13.899Z,11.60
2019-04-14T09:42:43.977Z,11.60
2019-04-14T09:45:14.211Z,11.80
2019-04-14T09:47:44.356Z,11.90
2019-04-14T09:50:14.628Z,11.90
2019-04-14T09:52:44.755Z,11.90
2019-04-14T09:55:14.981Z,11.90
2019-04-14T09:57:45.195Z,11.80
2019-04-14T10:00:16.866Z,11.90
2019-04-14T10:02:46.956Z,12.00
2019-04-14T10:05:17.091Z,12.00
2019-04-14T10:07:47.247Z,12.10
2019-04-14T10:10:17.283Z,12.10
2019-04-14T10:12:47.927Z,12.20
2019-04-14T10:15:18.127Z,12.30
2019-04-14T10:17:48.309Z,12.30
2019-04-14T10:20:18.523Z,12.30
2019-04-14T10:22:48.661Z,12.40
2019-04-14T10:25:18.662Z,12.50
2019-04-14T10:27:48.812Z,12.50
2019-04-14T10:30:18.890Z,12.70
2019-04-14T10:32:51.670Z,12.70
2019-04-14T10:35:21.682Z,12.70
2019-04-14T10:37:54.992Z,12.80
2019-04-14T10:40:25.141Z,12.80
2019-04-14T10:42:55.332Z,12.80
2019-04-14T10:45:25.398Z,12.70
2019-04-14T10:47:55.408Z,12.80
2019-04-14T10:50:30.990Z,12.70
2019-04-14T10:52:57.400Z,12.80
2019-04-14T10:55:27.611Z,12.80
2019-04-14T10:58:00.532Z,13.10
2019-04-14T11:00:30.746Z,13.30
2019-04-14T11:03:00.960Z,13.60
2019-04-14T11:05:32.749Z,13.60
2019-04-14T11:08:02.978Z,13.50
2019-04-14T11:10:33.270Z,13.30
2019-04-14T11:13:03.693Z,13.50
2019-04-14T11:15:33.981Z,13.80
2019-04-14T11:18:06.606Z,14.00
2019-04-14T11:20:36.746Z,14.00
2019-04-14T11:23:06.971Z,13.90
2019-04-14T11:25:37.018Z,14.00
2019-04-14T11:28:07.013Z,14.10
2019-04-14T11:30:37.481Z,14.20
2019-04-14T11:33:09.278Z,14.10
2019-04-14T11:35:44.104Z,14.20
2019-04-14T11:38:21.838Z,14.30
2019-04-14T11:40:56.457Z,14.30
2019-04-14T11:43:27.507Z,14.30
2019-04-14T11:45:59.371Z,14.30
2019-04-14T11:48:31.759Z,14.50
2019-04-14T11:51:04.061Z,14.80
2019-04-14T11:53:35.268Z,15.00
2019-04-14T11:56:06.406Z,15.00
2019-04-14T11:58:36.485Z,14.80
2019-04-14T12:01:23.463Z,14.40
2019-04-14T12:04:07.063Z,14.40
2019-04-14T12:06:54.956Z,14.40
2019-04-14T12:09:26.704Z,14.50
2019-04-14T12:11:56.873Z,14.70
2019-04-14T12:14:27.026Z,14.60
2019-04-14T12:16:57.112Z,14.60
2019-04-14T12:19:27.239Z,14.60
2019-04-14T12:22:08.047Z,14.80
2019-04-14T12:24:31.935Z,14.90
2019-04-14T12:27:03.139Z,15.10
2019-04-14T12:29:34.515Z,15.40
2019-04-14T12:32:06.471Z,15.70
2019-04-14T12:34:36.680Z,15.60
2019-04-14T12:37:07.227Z,16.00
2019-04-14T12:39:37.389Z,16.20
2019-04-14T12:42:24.263Z,16.40
2019-04-14T12:44:56.056Z,16.40
2019-04-14T12:47:39.724Z,16.50
2019-04-14T12:50:20.162Z,16.50
2019-04-14T12:52:50.315Z,16.10
2019-04-14T12:55:20.491Z,16.10
2019-04-14T12:57:52.248Z,16.20
2019-04-14T13:00:38.905Z,16.20
2019-04-14T13:03:09.482Z,16.30
2019-04-14T13:05:39.651Z,16.40
2019-04-14T13:08:09.848Z,16.50
2019-04-14T13:10:40.045Z,16.30
2019-04-14T13:13:10.491Z,16.00
2019-04-14T13:15:40.572Z,15.80
2019-04-14T13:18:10.640Z,15.50
2019-04-14T13:20:40.850Z,15.30
2019-04-14T13:23:10.538Z,15.10
2019-04-14T13:25:40.547Z,15.00
2019-04-14T13:28:10.774Z,14.80
2019-04-14T13:30:42.281Z,14.80
2019-04-14T13:33:12.563Z,14.70
2019-04-14T13:35:43.067Z,14.70
2019-04-14T13:38:13.550Z,14.70
2019-04-14T13:40:43.725Z,14.60
2019-04-14T13:43:13.936Z,14.70
2019-04-14T13:45:44.147Z,14.90
2019-04-14T13:48:14.283Z,14.90
2019-04-14T13:50:44.571Z,14.90
2019-04-14T13:53:18.364Z,14.90
2019-04-14T13:55:56.283Z,14.90
2019-04-14T13:58:26.495Z,14.90
2019-04-14T14:00:56.556Z,15.00
2019-04-14T14:03:26.623Z,15.30
2019-04-14T14:05:57.053Z,15.60
2019-04-14T14:08:27.146Z,15.80
2019-04-14T14:11:06.857Z,15.60
2019-04-14T14:13:37.904Z,15.50
2019-04-14T14:16:25.958Z,15.70
2019-04-14T14:19:10.011Z,15.70
2019-04-14T14:21:41.781Z,15.40
2019-04-14T14:24:29.943Z,15.40
2019-04-14T14:27:02.066Z,15.40
2019-04-14T14:29:32.205Z,15.10
2019-04-14T14:32:04.092Z,15.00
2019-04-14T14:34:34.157Z,15.00
2019-04-14T14:37:04.783Z,15.10
2019-04-14T14:39:35.123Z,15.10
2019-04-14T14:42:05.242Z,15.20
2019-04-14T14:44:43.851Z,15.20
2019-04-14T14:47:24.583Z,15.30
2019-04-14T14:50:05.318Z,15.30
2019-04-14T14:52:36.915Z,15.20
2019-04-14T14:55:07.434Z,15.10
2019-04-14T14:57:36.896Z,15.10
2019-04-14T15:00:09.982Z,14.90
2019-04-14T15:02:40.125Z,14.70
2019-04-14T15:05:10.547Z,14.70
2019-04-14T15:07:42.455Z,14.70
2019-04-14T15:10:12.663Z,14.60
2019-04-14T15:12:44.465Z,14.80
2019-04-14T15:15:14.668Z,15.00
2019-04-14T15:17:44.795Z,15.20
2019-04-14T15:20:14.861Z,15.30
2019-04-14T15:22:44.989Z,15.30
2019-04-14T15:25:15.495Z,15.40
2019-04-14T15:27:45.674Z,15.40
2019-04-14T15:30:20.142Z,15.50
2019-04-14T15:32:53.077Z,15.40
2019-04-14T15:35:23.264Z,15.20
2019-04-14T15:37:54.943Z,15.00
2019-04-14T15:40:26.567Z,14.90
2019-04-14T15:42:57.018Z,14.90
2019-04-14T15:45:27.073Z,14.90
2019-04-14T15:47:57.081Z,14.80
2019-04-14T15:50:27.069Z,14.80
2019-04-14T15:52:57.138Z,14.70
2019-04-14T15:55:27.203Z,14.60
2019-04-14T15:58:17.445Z,14.70
2019-04-14T16:01:06.543Z,14.70
2019-04-14T16:03:39.138Z,14.60
2019-04-14T16:06:10.917Z,14.60
2019-04-14T16:08:48.471Z,14.50
2019-04-14T16:11:20.238Z,14.50
2019-04-14T16:13:54.842Z,14.50
2019-04-14T16:16:28.371Z,14.50
2019-04-14T16:19:05.392Z,14.30
2019-04-14T16:21:35.524Z,14.30
2019-04-14T16:24:05.731Z,14.20
2019-04-14T16:26:37.899Z,14.20
2019-04-14T16:29:09.748Z,14.20
2019-04-14T16:31:48.148Z,14.10
2019-04-14T16:34:25.540Z,14.10
2019-04-14T16:36:56.320Z,14.00
2019-04-14T16:39:27.990Z,14.10
2019-04-14T16:41:58.052Z,14.10
2019-04-14T16:44:28.195Z,14.10
2019-04-14T16:46:58.401Z,14.20
2019-04-14T16:49:28.810Z,14.30
2019-04-14T16:52:00.596Z,14.20
2019-04-14T16:54:48.726Z,14.20
2019-04-14T16:57:37.388Z,14.10
2019-04-14T17:00:12.247Z,14.10
2019-04-14T17:02:46.843Z,14.10
2019-04-14T17:05:17.114Z,14.00
2019-04-14T17:07:55.163Z,14.10
2019-04-14T17:10:26.615Z,14.00
2019-04-14T17:12:57.912Z,14.00
2019-04-14T17:15:43.026Z,14.00
2019-04-14T17:18:32.711Z,14.00
2019-04-14T17:21:20.719Z,14.10
2019-04-14T17:23:55.270Z,14.00
2019-04-14T17:26:43.229Z,14.00
2019-04-14T17:29:14.999Z,14.00
2019-04-14T17:31:58.930Z,13.90
2019-04-14T17:34:46.810Z,13.90
2019-04-14T17:37:34.953Z,13.90
2019-04-14T17:40:08.263Z,13.90
2019-04-14T17:42:39.970Z,13.90
2019-04-14T17:45:20.896Z,13.80
2019-04-14T17:48:03.657Z,13.70
2019-04-14T17:50:41.026Z,13.50
2019-04-14T17:53:14.662Z,13.50
2019-04-14T17:55:50.245Z,13.50
2019-04-14T17:58:22.305Z,13.60
2019-04-14T18:00:55.334Z,13.60
2019-04-14T18:03:29.990Z,13.60
2019-04-14T18:06:04.580Z,13.40
2019-04-14T18:08:52.339Z,13.50
2019-04-14T18:11:30.048Z,13.30
2019-04-14T18:14:19.919Z,13.30
2019-04-14T18:16:51.697Z,13.20
2019-04-14T18:19:38.324Z,13.10
2019-04-14T18:22:08.504Z,13.20
2019-04-14T18:24:42.679Z,13.00
2019-04-14T18:27:12.107Z,12.90
2019-04-14T18:29:48.465Z,12.90
2019-04-14T18:32:20.263Z,12.80
2019-04-14T18:34:54.910Z,12.90
2019-04-14T18:37:29.495Z,13.00
2019-04-14T18:40:11.078Z,13.00
2019-04-14T18:42:42.924Z,12.90
2019-04-14T18:45:19.205Z,12.90
2019-04-14T18:47:54.053Z,12.80
2019-04-14T18:50:25.774Z,12.60
2019-04-14T18:53:00.172Z,12.60
2019-04-14T18:55:48.400Z,12.50
2019-04-14T18:58:30.213Z,12.60
2019-04-14T19:01:08.521Z,12.40
2019-04-14T19:03:38.681Z,12.40
2019-04-14T19:06:08.756Z,12.50
2019-04-14T19:08:39.052Z,12.60
2019-04-14T19:11:14.734Z,12.40
2019-04-14T19:13:46.764Z,12.30
2019-04-14T19:16:38.704Z,12.30
2019-04-14T19:19:02.350Z,12.20
2019-04-14T19:21:32.768Z,12.30
2019-04-14T19:24:06.681Z,12.30
2019-04-14T19:26:36.770Z,12.40
2019-04-14T19:29:06.894Z,12.50
2019-04-14T19:31:37.347Z,12.70
2019-04-14T19:34:07.555Z,12.80
2019-04-14T19:36:38.539Z,13.00
2019-04-14T19:39:10.835Z,13.00
2019-04-14T19:41:41.138Z,12.80
2019-04-14T19:44:11.363Z,12.70
2019-04-14T19:46:44.700Z,12.70
2019-04-14T19:49:14.843Z,12.70
2019-04-14T19:51:44.994Z,12.60
2019-04-14T19:54:15.215Z,12.60
2019-04-14T19:56:45.219Z,12.40
2019-04-14T19:59:16.258Z,12.40
2019-04-14T20:01:46.475Z,12.40
2019-04-14T20:04:16.699Z,12.40
2019-04-14T20:06:46.767Z,12.40
2019-04-14T20:09:16.839Z,12.40
2019-04-14T20:11:46.943Z,12.50
2019-04-14T20:14:17.086Z,12.40
2019-04-14T20:16:48.870Z,12.40
2019-04-14T20:19:35.503Z,12.40
2019-04-14T20:22:10.031Z,12.40
2019-04-14T20:24:41.765Z,12.40
2019-04-14T20:27:13.528Z,12.40
2019-04-14T20:29:47.199Z,12.50
2019-04-14T20:32:21.603Z,12.70
2019-04-14T20:34:53.691Z,12.80
2019-04-14T20:37:23.765Z,12.90
2019-04-14T20:39:55.632Z,12.90
2019-04-14T20:42:25.772Z,12.90
2019-04-14T20:44:55.932Z,12.90
2019-04-14T20:47:26.152Z,12.60
2019-04-14T20:49:56.390Z,12.10
2019-04-14T20:52:28.137Z,12.30
2019-04-14T20:54:58.669Z,12.40
2019-04-14T20:57:28.987Z,12.60
2019-04-14T20:59:59.223Z,12.70
2019-04-14T21:02:31.004Z,12.70
2019-04-14T21:05:09.115Z,12.50
2019-04-14T21:07:46.528Z,12.50
2019-04-14T21:10:33.396Z,12.60
2019-04-14T21:13:11.186Z,12.70
2019-04-14T21:15:45.860Z,12.40
2019-04-14T21:18:17.642Z,12.40
2019-04-14T21:20:52.410Z,12.40
2019-04-14T21:23:26.892Z,12.40
2019-04-14T21:26:05.738Z,12.50
2019-04-14T21:28:55.632Z,12.40
2019-04-14T21:31:30.308Z,12.50
2019-04-14T21:34:14.244Z,12.50
2019-04-14T21:37:04.121Z,12.50
2019-04-14T21:39:40.381Z,12.40
2019-04-14T21:42:09.080Z,12.50
2019-04-14T21:44:39.071Z,12.50
2019-04-14T21:47:09.168Z,12.40
2019-04-14T21:49:39.316Z,12.50
2019-04-14T21:52:27.099Z,12.50
2019-04-14T21:54:57.287Z,12.60
2019-04-14T21:57:35.942Z,12.70
2019-04-14T22:00:26.515Z,12.50
2019-04-14T22:02:59.843Z,12.40
2019-04-14T22:05:36.996Z,12.50
2019-04-14T22:08:11.422Z,12.40
2019-04-14T22:10:43.137Z,12.40
2019-04-14T22:13:13.391Z,12.30
2019-04-14T22:15:43.736Z,12.30
2019-04-14T22:18:14.168Z,12.40
2019-04-14T22:20:45.803Z,12.50
2019-04-14T22:23:15.940Z,12.40
2019-04-14T22:25:46.084Z,12.30
2019-04-14T22:28:17.859Z,12.30
2019-04-14T22:30:49.374Z,12.20
2019-04-14T22:33:19.362Z,12.10
2019-04-14T22:35:49.585Z,12.20
2019-04-14T22:38:19.785Z,12.10
2019-04-14T22:40:49.939Z,12.10
2019-04-14T22:43:21.547Z,12.20
2019-04-14T22:45:51.618Z,12.20
2019-04-14T22:48:21.831Z,12.20
2019-04-14T22:50:51.840Z,12.30
2019-04-14T22:53:22.040Z,12.30
2019-04-14T22:55:52.184Z,12.30
2019-04-14T22:58:22.231Z,12.30
2019-04-14T23:00:54.426Z,12.20
2019-04-14T23:03:30.180Z,12.20
2019-04-14T23:06:29.032Z,12.20
2019-04-14T23:09:19.730Z,12.30
2019-04-14T23:11:54.512Z,12.20
2019-04-14T23:14:34.888Z,12.20
2019-04-14T23:17:08.275Z,12.10
2019-04-14T23:19:45.597Z,12.10
2019-04-14T23:22:17.428Z,12.10
2019-04-14T23:24:49.141Z,12.20
2019-04-14T23:27:20.298Z,12.10
2019-04-14T23:29:50.353Z,12.20
2019-04-14T23:32:23.228Z,12.40
2019-04-14T23:34:53.352Z,12.50
2019-04-14T23:37:23.485Z,12.50
2019-04-14T23:39:53.623Z,12.50
2019-04-14T23:42:23.691Z,12.50
2019-04-14T23:44:53.759Z,12.40
2019-04-14T23:47:23.786Z,12.50
2019-04-14T23:49:53.927Z,12.60
2019-04-14T23:52:24.003Z,12.50
2019-04-14T23:54:55.148Z,12.50
2019-04-14T23:57:25.359Z,12.50
2019-04-14T23:59:57.109Z,12.20
